Time;durP1;ratioP1;P1;durP2;ratioP2;P2;SDS_P1;SDS_P2;PMS_P1;PMS_P2;Temp;Humidity;BMP_temperature;BMP_pressure;BME280_temperature;BME280_humidity;BME280_pressure;Samples;Min_cycle;Max_cycle;Signal;HPM_P1;HPM_P2
2021/12/05 00:16:50;;;;;;;5.88;0.80;;;;;;;5.66;100.00;99569.91;5086360;28;20060;-33
2021/12/05 00:18:19;;;;;;;7.22;1.30;;;;;;;5.47;100.00;99593.97;5086770;28;20063;-36
2021/12/05 00:23:39;;;;;;;6.50;1.13;;;;;;;5.43;100.00;99590.16;5079969;28;20052;-34
2021/12/05 00:26:13;;;;;;;5.53;1.20;;;;;;;5.36;100.00;99598.00;5083767;28;20060;-42
2021/12/05 00:34:32;;;;;;;7.03;1.30;;;;;;;5.25;100.00;99594.53;5080682;28;20048;-29
2021/12/05 00:40:18;;;;;;;;;;;;;;;5.17;100.00;99590.47;5088106;28;20068;-31
2021/12/05 00:46:05;;;;;;;10.32;2.05;;;;;;;5.18;100.00;99585.78;5038233;28;19920;-31
2021/12/05 00:48:51;;;;;;;6.10;1.15;;;;;;;5.23;100.00;99579.34;5083434;28;20075;-34
2021/12/05 01:00:04;;;;;;;6.15;1.38;;;;;;;5.13;100.00;99578.38;5076172;28;20059;-36
2021/12/05 01:13:46;;;;;;;7.17;1.23;;;;;;;4.96;100.00;99578.00;5072281;28;20060;-34
2021/12/05 01:16:18;;;;;;;5.53;1.35;;;;;;;4.94;100.00;99577.47;5073131;28;20076;-28
2021/12/05 01:18:48;;;;;;;5.53;1.23;;;;;;;4.91;100.00;99575.31;5072284;28;20135;-37
2021/12/05 01:21:20;;;;;;;5.30;1.20;;;;;;;4.90;100.00;99570.88;5071986;28;20052;-35
2021/12/05 01:23:57;;;;;;;4.75;1.02;;;;;;;4.86;100.00;99578.09;5072687;28;20045;-38
2021/12/05 01:26:29;;;;;;;7.38;1.17;;;;;;;4.80;100.00;99577.34;5071971;28;20131;-33
2021/12/05 01:31:51;;;;;;;7.63;1.65;;;;;;;4.72;100.00;99596.50;5072497;28;20041;-36
2021/12/05 01:34:34;;;;;;;7.50;2.10;;;;;;;4.68;100.00;99584.38;5071735;28;20048;-32
2021/12/05 01:37:14;;;;;;;7.45;1.95;;;;;;;4.67;100.00;99602.06;5061337;28;20052;-33
2021/12/05 01:39:56;;;;;;;9.65;2.70;;;;;;;4.66;100.00;99584.66;5071630;28;20062;-32
2021/12/05 01:46:01;;;;;;;5.40;2.45;;;;;;;4.64;100.00;99588.84;5071158;28;20440;-34
2021/12/05 01:49:05;;;;;;;11.13;3.28;;;;;;;4.65;100.00;99582.19;5071247;28;20503;-36
2021/12/05 01:51:54;;;;;;;9.45;2.83;;;;;;;4.66;100.00;99589.38;5064575;28;20409;-29
2021/12/05 01:54:57;;;;;;;10.60;3.05;;;;;;;4.65;100.00;99599.59;5072078;28;20055;-35
2021/12/05 02:08:55;;;;;;;10.65;3.78;;;;;;;4.57;100.00;99602.19;5051435;28;20140;-32
2021/12/05 02:31:04;;;;;;;8.57;2.45;;;;;;;4.41;100.00;99626.34;5070906;28;20048;-35
2021/12/05 02:33:51;;;;;;;5.25;2.30;;;;;;;4.42;100.00;99631.56;5069894;28;20048;-38
2021/12/05 02:39:26;;;;;;;4.68;2.10;;;;;;;4.36;100.00;99626.41;5072220;28;20044;-35
2021/12/05 02:41:56;;;;;;;5.70;2.30;;;;;;;4.39;100.00;99629.41;5071280;28;20094;-38
2021/12/05 02:44:25;;;;;;;6.85;2.53;;;;;;;4.36;100.00;99624.47;5070374;28;20051;-36
2021/12/05 02:47:00;;;;;;;6.28;2.40;;;;;;;4.37;100.00;99620.59;5069798;28;20125;-32
2021/12/05 02:49:32;;;;;;;6.25;2.40;;;;;;;4.37;100.00;99628.03;5070608;28;20348;-30
2021/12/05 02:52:04;;;;;;;5.28;2.35;;;;;;;4.35;100.00;99631.09;5071413;28;20053;-36
2021/12/05 02:54:41;;;;;;;3.80;2.40;;;;;;;4.35;100.00;99631.09;5058997;28;20056;-31
2021/12/05 02:57:09;;;;;;;3.85;2.63;;;;;;;4.35;100.00;99638.56;5071606;28;20048;-36
2021/12/05 02:59:45;;;;;;;5.65;2.47;;;;;;;4.34;100.00;99637.72;5070088;28;20056;-34
2021/12/05 03:02:18;;;;;;;4.97;2.50;;;;;;;4.36;100.00;99632.75;5069626;28;20098;-35
2021/12/05 03:04:52;;;;;;;5.57;2.78;;;;;;;4.36;100.00;99641.03;5070203;28;20456;-39
2021/12/05 03:07:26;;;;;;;5.80;2.83;;;;;;;4.34;100.00;99643.25;5070032;28;20193;-35
2021/12/05 03:09:56;;;;;;;6.13;2.83;;;;;;;4.35;100.00;99644.91;5069342;28;20511;-33
2021/12/05 03:12:24;;;;;;;4.50;2.80;;;;;;;4.33;100.00;99644.38;5069878;28;20823;-37
2021/12/05 03:15:01;;;;;;;5.30;2.92;;;;;;;4.35;100.00;99655.13;5069473;28;20464;-37
2021/12/05 03:17:32;;;;;;;6.65;2.95;;;;;;;4.33;100.00;99649.88;5070308;28;20101;-34
2021/12/05 03:20:00;;;;;;;6.10;2.80;;;;;;;4.33;100.00;99652.66;5069806;28;20052;-37
2021/12/05 03:22:28;;;;;;;7.90;2.90;;;;;;;4.35;100.00;99655.13;5069258;28;20098;-30
2021/12/05 03:24:58;;;;;;;5.32;2.97;;;;;;;4.36;100.00;99656.78;5070092;28;20492;-31
2021/12/05 03:27:28;;;;;;;7.10;3.10;;;;;;;4.34;100.00;99648.78;5069819;28;20032;-36
2021/12/05 03:29:57;;;;;;;6.38;3.03;;;;;;;4.36;100.00;99654.84;5069269;28;20052;-38
2021/12/05 03:32:26;;;;;;;6.10;2.72;;;;;;;4.36;100.00;99660.34;5069614;28;20048;-31
2021/12/05 03:34:54;;;;;;;7.38;3.30;;;;;;;4.36;100.00;99659.53;5070830;28;20548;-39
2021/12/05 03:37:22;;;;;;;6.93;3.10;;;;;;;4.38;100.00;99665.59;5070611;28;20041;-33
2021/12/05 03:39:51;;;;;;;5.25;3.20;;;;;;;4.38;100.00;99663.66;5071131;28;20056;-29
2021/12/05 03:42:20;;;;;;;5.18;3.28;;;;;;;4.37;100.00;99666.72;5070905;28;20039;-34
2021/12/05 03:44:48;;;;;;;5.97;3.28;;;;;;;4.36;100.00;99665.06;5068998;28;20476;-32
2021/12/05 03:47:16;;;;;;;4.47;3.05;;;;;;;4.35;100.00;99663.41;5070747;28;20048;-37
2021/12/05 03:49:45;;;;;;;4.70;2.70;;;;;;;4.36;100.00;99673.34;5070825;28;20044;-38
2021/12/05 03:52:16;;;;;;;6.47;3.38;;;;;;;4.36;100.00;99667.81;5070183;28;20063;-37
2021/12/05 03:54:45;;;;;;;5.22;3.42;;;;;;;4.34;100.00;99673.63;5069187;28;20511;-30
2021/12/05 03:57:13;;;;;;;7.43;3.70;;;;;;;4.34;100.00;99670.88;5068599;28;20127;-29
2021/12/05 03:59:44;;;;;;;7.50;4.18;;;;;;;4.33;100.00;99676.69;5069354;28;20052;-35
2021/12/05 04:02:12;;;;;;;7.35;4.10;;;;;;;4.32;100.00;99673.09;5069240;28;20041;-35
2021/12/05 04:04:41;;;;;;;8.60;4.55;;;;;;;4.32;100.00;99675.03;5068972;28;20056;-29
2021/12/05 04:07:13;;;;;;;5.30;3.90;;;;;;;4.27;100.00;99673.13;5069304;28;20045;-36
2021/12/05 04:09:41;;;;;;;9.30;4.93;;;;;;;4.24;100.00;99676.44;5069427;28;20412;-34
2021/12/05 04:12:11;;;;;;;10.00;5.00;;;;;;;4.21;100.00;99668.72;5068701;28;20536;-39
2021/12/05 04:14:44;;;;;;;10.13;5.25;;;;;;;4.18;100.00;99676.78;5069241;28;20076;-33
2021/12/05 04:17:17;;;;;;;9.25;5.72;;;;;;;4.10;100.00;99675.44;5069237;28;20045;-33
2021/12/05 04:19:45;;;;;;;13.47;6.90;;;;;;;4.08;100.00;99675.72;5070162;28;20080;-31
2021/12/05 04:22:12;;;;;;;12.85;6.47;;;;;;;4.06;100.00;99669.66;5070397;28;20049;-37
2021/12/05 04:24:42;;;;;;;10.60;6.35;;;;;;;4.03;100.00;99674.91;5070520;28;20053;-35
2021/12/05 04:27:12;;;;;;;9.02;6.20;;;;;;;4.00;100.00;99678.25;5068396;28;20048;-33
2021/12/05 04:29:42;;;;;;;11.23;6.43;;;;;;;3.95;100.00;99678.31;5060289;28;20049;-31
2021/12/05 04:32:11;;;;;;;9.95;6.03;;;;;;;3.92;100.00;99681.63;5068457;28;20045;-31
2021/12/05 04:34:39;;;;;;;11.52;7.57;;;;;;;3.90;100.00;99681.06;5068588;28;20136;-36
2021/12/05 04:37:09;;;;;;;11.05;6.72;;;;;;;3.87;100.00;99679.72;5070809;28;20076;-37
2021/12/05 04:39:38;;;;;;;13.00;8.02;;;;;;;3.85;100.00;99678.34;5073530;28;20040;-32
2021/12/05 04:42:07;;;;;;;15.70;7.55;;;;;;;3.82;100.00;99676.97;5073165;28;20047;-33
2021/12/05 04:44:35;;;;;;;11.38;7.30;;;;;;;3.78;100.00;99682.25;5072660;28;20144;-33
2021/12/05 04:47:05;;;;;;;12.07;6.82;;;;;;;3.77;100.00;99691.63;5072376;28;20075;-37
2021/12/05 04:49:34;;;;;;;12.20;7.90;;;;;;;3.75;100.00;99687.50;5072075;28;20160;-37
2021/12/05 04:52:02;;;;;;;12.27;7.72;;;;;;;3.73;100.00;99703.50;5072742;28;20088;-34
2021/12/05 04:54:31;;;;;;;12.25;7.65;;;;;;;3.66;100.00;99697.47;5071760;28;20059;-32
2021/12/05 04:56:59;;;;;;;10.02;6.18;;;;;;;3.63;100.00;99704.38;5072673;28;20094;-31
2021/12/05 04:59:34;;;;;;;12.32;6.88;;;;;;;3.60;100.00;99707.69;5072455;28;20048;-36
2021/12/05 05:02:08;;;;;;;7.68;5.90;;;;;;;3.55;100.00;99721.53;5069584;28;20447;-36
2021/12/05 05:04:42;;;;;;;9.60;5.57;;;;;;;3.52;100.00;99727.59;5073398;28;20041;-29
2021/12/05 05:07:17;;;;;;;6.38;4.40;;;;;;;3.50;100.00;99731.72;5073315;28;20600;-32
2021/12/05 05:09:46;;;;;;;9.63;6.40;;;;;;;3.47;100.00;99724.84;5071885;28;20052;-36
2021/12/05 05:12:14;;;;;;;10.73;6.38;;;;;;;3.44;100.00;99734.50;5071402;28;20547;-35
2021/12/05 05:14:42;;;;;;;11.00;6.25;;;;;;;3.43;100.00;99724.56;5071694;28;20044;-31
2021/12/05 05:17:12;;;;;;;9.32;6.25;;;;;;;3.40;100.00;99733.41;5071923;28;20088;-28
2021/12/05 05:19:40;;;;;;;13.27;6.57;;;;;;;3.38;100.00;99737.56;5072229;28;20044;-33
2021/12/05 05:22:19;;;;;;;10.55;7.35;;;;;;;3.35;100.00;99738.13;5071585;28;20040;-33
2021/12/05 05:27:52;;;;;;;12.98;7.10;;;;;;;3.26;100.00;99743.38;5039994;28;20052;-32
2021/12/05 05:47:03;;;;;;;12.40;7.13;;;;;;;3.00;100.00;99772.03;5067153;28;20047;-38
2021/12/05 05:49:46;;;;;;;12.32;7.50;;;;;;;2.98;100.00;99777.84;5072880;28;20041;-33
2021/12/05 05:52:14;;;;;;;12.40;6.63;;;;;;;2.96;100.00;99785.56;5071339;28;20055;-31
2021/12/05 05:54:44;;;;;;;11.55;7.32;;;;;;;2.95;100.00;99792.19;5072647;28;20048;-32
2021/12/05 05:57:14;;;;;;;12.10;7.55;;;;;;;2.96;100.00;99793.84;5072093;28;20048;-36
2021/12/05 05:59:47;;;;;;;13.85;8.77;;;;;;;2.96;100.00;99801.28;5072831;28;20044;-31
2021/12/05 06:05:02;;;;;;;12.27;8.15;;;;;;;2.93;100.00;99805.41;5070594;28;20588;-39
2021/12/05 06:07:30;;;;;;;12.38;8.15;;;;;;;2.92;100.00;99805.69;5072698;28;20052;-39
2021/12/05 06:09:57;;;;;;;17.08;8.32;;;;;;;2.91;100.00;99807.59;5072656;28;20049;-31
2021/12/05 06:12:25;;;;;;;13.77;8.07;;;;;;;2.90;100.00;99811.47;5071861;28;20211;-31
2021/12/05 06:14:53;;;;;;;14.68;8.65;;;;;;;2.89;100.00;99815.31;5071020;28;20508;-38
2021/12/05 06:17:21;;;;;;;12.85;7.30;;;;;;;2.89;100.00;99820.81;5072068;28;20044;-35
2021/12/05 06:19:49;;;;;;;12.05;8.40;;;;;;;2.89;100.00;99818.06;5072084;28;20064;-40
2021/12/05 06:22:18;;;;;;;16.05;8.13;;;;;;;2.87;100.00;99824.94;5070723;28;20047;-36
2021/12/05 06:24:46;;;;;;;15.07;8.45;;;;;;;2.82;100.00;99809.25;5071764;28;20051;-35
2021/12/05 06:27:14;;;;;;;11.38;7.35;;;;;;;2.82;100.00;99816.69;5072370;28;20077;-39
2021/12/05 06:29:48;;;;;;;14.63;8.57;;;;;;;2.82;100.00;99822.19;5071950;28;20067;-32
2021/12/05 06:32:38;;;;;;;12.90;8.88;;;;;;;2.79;100.00;99826.34;5071431;28;20049;-33
2021/12/05 06:38:06;;;;;;;12.75;8.45;;;;;;;2.76;100.00;99821.38;5071777;28;20048;-31
2021/12/05 06:40:49;;;;;;;16.00;8.00;;;;;;;2.74;100.00;99823.56;5069475;28;20058;-34
2021/12/05 06:46:04;;;;;;;17.13;8.83;;;;;;;2.71;100.00;99843.41;5059859;28;20048;-28
2021/12/05 06:48:32;;;;;;;13.18;8.50;;;;;;;2.71;100.00;99838.72;5069922;28;20293;-35
2021/12/05 06:51:00;;;;;;;15.05;8.15;;;;;;;2.71;100.00;99846.97;5070016;28;20147;-34
2021/12/05 06:53:29;;;;;;;13.05;6.68;;;;;;;2.70;100.00;99850.00;5070099;28;20036;-34
2021/12/05 06:55:57;;;;;;;11.57;7.28;;;;;;;2.68;100.00;99858.53;5071090;28;20045;-36
2021/12/05 06:58:25;;;;;;;15.32;8.00;;;;;;;2.66;100.00;99860.72;5071091;28;20044;-33
2021/12/05 07:00:53;;;;;;;12.13;6.78;;;;;;;2.65;100.00;99861.81;5068919;28;20405;-35
2021/12/05 07:03:23;;;;;;;11.93;6.88;;;;;;;2.65;100.00;99869.25;5071308;28;20626;-28
2021/12/05 07:05:56;;;;;;;10.25;6.30;;;;;;;2.63;100.00;99865.94;5071185;28;20053;-32
2021/12/05 07:08:28;;;;;;;9.75;6.10;;;;;;;2.62;100.00;99869.78;5070964;28;20048;-33
2021/12/05 07:11:02;;;;;;;12.32;8.13;;;;;;;2.60;100.00;99872.81;5071452;28;20056;-33
2021/12/05 07:16:24;;;;;;;10.38;5.50;;;;;;;2.58;100.00;99880.56;5069856;28;20048;-33
2021/12/05 07:19:13;;;;;;;9.52;6.20;;;;;;;2.58;100.00;99885.22;5068938;28;20464;-31
2021/12/05 07:21:47;;;;;;;6.15;4.30;;;;;;;2.55;100.00;99880.25;5068536;28;20117;-29
2021/12/05 07:24:30;;;;;;;7.13;4.93;;;;;;;2.54;100.00;99886.88;5069307;28;20048;-30
2021/12/05 07:40:56;;;;;;;8.20;5.07;;;;;;;2.40;100.00;99916.81;5069896;28;20051;-34
2021/12/05 07:43:25;;;;;;;8.35;4.90;;;;;;;2.39;100.00;99920.69;5069389;28;20049;-35
2021/12/05 07:45:56;;;;;;;7.50;4.60;;;;;;;2.39;100.00;99926.19;5069045;28;20032;-38
2021/12/05 07:48:29;;;;;;;5.35;3.80;;;;;;;2.38;100.00;99935.53;5069906;28;20049;-36
2021/12/05 07:51:08;;;;;;;5.05;3.55;;;;;;;2.36;100.00;99929.47;5065713;28;20170;-35
2021/12/05 07:53:45;;;;;;;6.30;4.07;;;;;;;2.34;100.00;99938.00;5069715;28;20058;-33
2021/12/05 07:56:18;;;;;;;8.35;4.22;;;;;;;2.33;100.00;99946.50;5066772;28;20059;-31
2021/12/05 07:59:12;;;;;;;7.55;3.83;;;;;;;2.34;100.00;99951.75;5069901;28;20056;-35
2021/12/05 08:15:32;;;;;;;5.93;3.47;;;;;;;2.26;100.00;99966.00;5064753;28;20440;-33
2021/12/05 08:18:00;;;;;;;6.18;4.25;;;;;;;2.27;100.00;99972.34;5073008;28;20044;-35
2021/12/05 08:20:30;;;;;;;5.93;4.25;;;;;;;2.29;100.00;99973.75;5071991;28;20058;-36
2021/12/05 08:23:00;;;;;;;6.25;3.72;;;;;;;2.32;100.00;99981.47;5073412;28;20051;-33
2021/12/05 08:25:30;;;;;;;6.70;4.00;;;;;;;2.36;100.00;99979.03;5072856;28;20049;-36
2021/12/05 08:28:12;;;;;;;7.93;4.65;;;;;;;2.39;100.00;99987.59;5073130;28;20040;-32
2021/12/05 08:30:43;;;;;;;7.40;4.43;;;;;;;2.47;100.00;99993.66;5073371;28;20062;-35
2021/12/05 08:33:26;;;;;;;10.38;5.93;;;;;;;2.55;100.00;99995.91;5072500;28;20040;-33
2021/12/05 08:36:29;;;;;;;7.00;5.00;;;;;;;2.63;100.00;99998.97;5073000;28;20055;-34
2021/12/05 08:39:29;;;;;;;6.57;4.15;;;;;;;2.72;100.00;99996.53;5072131;28;20059;-34
2021/12/05 08:42:20;;;;;;;6.90;4.75;;;;;;;2.82;100.00;100006.75;5072954;28;20056;-36
2021/12/05 09:21:19;;;;;;;10.63;7.32;;;;;;;4.12;100.00;100073.53;5071843;28;20040;-36
2021/12/05 09:26:52;;;;;;;9.90;6.95;;;;;;;4.23;100.00;100085.38;5047956;28;20465;-35
2021/12/05 09:50:58;;;;;;;9.27;6.07;;;;;;;4.47;100.00;100106.66;5072037;28;20044;-35
2021/12/05 10:03:34;;;;;;;8.73;6.78;;;;;;;4.85;100.00;100140.31;5072061;28;20395;-35
2021/12/05 10:08:54;;;;;;;10.95;7.55;;;;;;;4.92;100.00;100151.09;5072167;28;20387;-37
2021/12/05 10:14:21;;;;;;;11.30;7.45;;;;;;;4.96;100.00;100139.19;5071252;28;20452;-39
2021/12/05 10:34:19;;;;;;;8.30;6.22;;;;;;;5.01;100.00;100160.44;5049494;28;20045;-31
2021/12/05 10:37:04;;;;;;;10.05;7.95;;;;;;;5.03;100.00;100161.00;5048680;28;20124;-33
2021/12/05 10:39:32;;;;;;;11.13;8.20;;;;;;;5.06;100.00;100169.56;5056213;28;20044;-36
2021/12/05 10:42:12;;;;;;;14.05;9.77;;;;;;;5.10;100.00;100169.84;5071612;28;20067;-36
2021/12/05 10:44:46;;;;;;;12.63;9.75;;;;;;;5.11;100.00;100169.56;5071952;28;20135;-36
2021/12/05 10:47:13;;;;;;;10.85;7.88;;;;;;;5.12;100.00;100176.75;5071194;28;20048;-34
2021/12/05 10:49:41;;;;;;;10.85;8.32;;;;;;;5.17;100.00;100174.00;5071489;28;20072;-35
2021/12/05 10:52:16;;;;;;;10.88;8.80;;;;;;;5.22;100.00;100184.19;5070591;28;20054;-38
2021/12/05 10:54:56;;;;;;;12.63;7.72;;;;;;;5.26;100.00;100187.22;5071329;28;20558;-36
2021/12/05 10:57:28;;;;;;;13.02;8.48;;;;;;;5.29;100.00;100190.25;5071528;28;20059;-36
2021/12/05 11:00:11;;;;;;;11.23;8.57;;;;;;;5.33;100.00;100193.31;5071005;28;20156;-34
2021/12/05 11:02:40;;;;;;;9.60;7.78;;;;;;;5.36;100.00;100198.28;5071163;28;20037;-31
2021/12/05 11:05:08;;;;;;;10.27;6.93;;;;;;;5.40;100.00;100205.72;5071048;28;20044;-34
2021/12/05 11:07:38;;;;;;;9.45;7.28;;;;;;;5.45;100.00;100213.19;5070823;28;20048;-31
2021/12/05 11:10:11;;;;;;;12.23;8.57;;;;;;;5.50;100.00;100215.94;5071463;28;20511;-31
2021/12/05 11:12:39;;;;;;;11.32;8.25;;;;;;;5.50;100.00;100210.41;5067942;28;20040;-34
2021/12/05 11:15:13;;;;;;;12.60;9.75;;;;;;;5.48;100.00;100221.75;5070755;28;20494;-35
2021/12/05 11:17:43;;;;;;;11.35;8.63;;;;;;;5.47;100.00;100224.78;5070097;28;20052;-32
2021/12/05 11:20:17;;;;;;;12.85;7.43;;;;;;;5.48;100.00;100232.00;5070719;28;20051;-32
2021/12/05 11:22:47;;;;;;;12.88;9.40;;;;;;;5.50;100.00;100236.13;5070983;28;20040;-34
2021/12/05 11:25:17;;;;;;;12.70;8.77;;;;;;;5.54;100.00;100236.41;5059407;28;20072;-39
2021/12/05 11:27:48;;;;;;;11.35;8.63;;;;;;;5.58;100.00;100243.03;5070325;28;20413;-34
2021/12/05 11:30:20;;;;;;;11.32;7.32;;;;;;;5.62;100.00;100237.75;5071105;28;20044;-33
2021/12/05 11:32:52;;;;;;;7.35;5.88;;;;;;;5.63;100.00;100242.19;5071036;28;20053;-38
2021/12/05 11:35:30;;;;;;;11.55;8.30;;;;;;;5.63;100.00;100237.47;5070748;28;20390;-31
2021/12/05 11:38:06;;;;;;;10.00;7.60;;;;;;;5.64;100.00;100247.44;5071127;28;20117;-40
2021/12/05 11:40:53;;;;;;;13.80;9.25;;;;;;;5.65;100.00;100249.09;5071061;28;20067;-35
2021/12/05 11:43:25;;;;;;;12.10;8.93;;;;;;;5.61;100.00;100248.00;5070514;28;20053;-35
2021/12/05 11:45:59;;;;;;;14.93;10.20;;;;;;;5.59;100.00;100249.41;5070912;28;20070;-36
2021/12/05 11:48:30;;;;;;;10.77;7.80;;;;;;;5.60;100.00;100253.81;5070282;28;20049;-35
2021/12/05 11:50:59;;;;;;;13.57;9.68;;;;;;;5.60;100.00;100262.09;5070858;28;20486;-36
2021/12/05 11:53:40;;;;;;;12.27;8.57;;;;;;;5.59;100.00;100260.47;5070867;28;20052;-37
2021/12/05 11:56:10;;;;;;;11.97;8.03;;;;;;;5.56;100.00;100263.81;5070571;28;20470;-39
2021/12/05 11:58:39;;;;;;;11.18;7.68;;;;;;;5.55;100.00;100274.03;5070511;28;20041;-32
2021/12/05 12:01:13;;;;;;;16.08;11.52;;;;;;;5.57;100.00;100274.59;5070714;28;20477;-36
2021/12/05 12:03:42;;;;;;;10.68;8.15;;;;;;;5.57;100.00;100282.91;5070258;28;20045;-34
2021/12/05 12:06:11;;;;;;;13.95;8.63;;;;;;;5.59;100.00;100283.44;5070861;28;20474;-30
2021/12/05 12:08:39;;;;;;;12.48;8.35;;;;;;;5.60;100.00;100287.84;5070565;28;20521;-38
2021/12/05 12:11:06;;;;;;;12.50;9.00;;;;;;;5.61;100.00;100295.03;5070069;28;20074;-35
2021/12/05 12:13:38;;;;;;;8.88;6.50;;;;;;;5.63;100.00;100297.53;5070438;28;20079;-31
2021/12/05 12:16:12;;;;;;;9.80;7.07;;;;;;;5.66;100.00;100295.03;5070380;28;20044;-39
2021/12/05 12:18:44;;;;;;;13.52;10.35;;;;;;;5.65;100.00;100304.44;5070160;28;20057;-37
2021/12/05 12:21:16;;;;;;;;;;;;;;;5.57;100.00;100307.81;5070812;28;20051;-36
2021/12/05 12:23:44;;;;;;;14.82;9.50;;;;;;;5.52;100.00;100308.63;5070157;28;19931;-37
2021/12/05 12:26:12;;;;;;;11.10;7.45;;;;;;;5.54;100.00;100311.13;5070730;28;20057;-33
2021/12/05 12:28:41;;;;;;;13.68;9.57;;;;;;;5.56;100.00;100314.44;5070631;28;20075;-33
2021/12/05 12:31:17;;;;;;;14.40;10.45;;;;;;;5.58;100.00;100323.31;5069890;28;20048;-37
2021/12/05 12:33:50;;;;;;;11.32;8.15;;;;;;;5.59;100.00;100319.44;5070423;28;20095;-31
2021/12/05 12:36:31;;;;;;;14.90;10.45;;;;;;;5.61;100.00;100322.72;5070373;28;20063;-35
2021/12/05 12:39:03;;;;;;;17.27;10.03;;;;;;;5.58;100.00;100317.75;5069784;28;20071;-39
2021/12/05 12:41:32;;;;;;;15.93;11.25;;;;;;;5.58;100.00;100325.25;5070470;28;20287;-34
2021/12/05 12:44:08;;;;;;;16.48;11.07;;;;;;;5.54;100.00;100330.50;5070327;28;20041;-39
2021/12/05 12:46:40;;;;;;;13.30;9.02;;;;;;;5.54;100.00;100333.25;5069773;28;20453;-27
2021/12/05 12:49:26;;;;;;;14.13;10.25;;;;;;;5.55;100.00;100343.22;5070049;28;20047;-34
2021/12/05 12:51:59;;;;;;;17.75;11.32;;;;;;;5.56;100.00;100342.13;5068806;28;20060;-32
2021/12/05 12:54:30;;;;;;;16.08;10.40;;;;;;;5.58;100.00;100350.97;5070210;28;20059;-39
2021/12/05 12:57:12;;;;;;;18.00;12.55;;;;;;;5.60;100.00;100357.03;5070166;28;20052;-30
2021/12/05 12:59:44;;;;;;;15.52;10.85;;;;;;;5.59;100.00;100352.63;5072009;28;20044;-41
2021/12/05 13:10:37;;;;;;;18.67;13.18;;;;;;;5.54;100.00;100372.84;5074086;28;20078;-34
2021/12/05 13:13:11;;;;;;;20.40;14.20;;;;;;;5.49;100.00;100369.25;5073194;28;20048;-32
2021/12/05 13:15:43;;;;;;;19.17;12.20;;;;;;;5.50;100.00;100384.72;5073504;28;20087;-36
2021/12/05 13:18:23;;;;;;;;;;;;;;;5.43;100.00;100389.69;5073662;28;20044;-39
2021/12/05 13:20:56;;;;;;;12.35;8.82;;;;;;;5.42;100.00;100376.97;5071237;28;20397;-32
2021/12/05 13:23:32;;;;;;;15.90;11.18;;;;;;;5.47;100.00;100396.34;5073452;28;20144;-39
2021/12/05 13:26:08;;;;;;;16.98;11.55;;;;;;;5.49;100.00;100394.97;5073250;28;20569;-38
2021/12/05 13:28:42;;;;;;;13.32;9.60;;;;;;;5.50;100.00;100395.81;5072745;28;20045;-37
2021/12/05 13:31:36;;;;;;;20.15;13.32;;;;;;;5.50;100.00;100401.34;5073367;28;20131;-34
2021/12/05 13:34:24;;;;;;;12.68;9.20;;;;;;;5.48;100.00;100414.63;5072468;28;20044;-35
2021/12/05 13:36:55;;;;;;;18.50;12.32;;;;;;;5.48;100.00;100422.91;5072863;28;20131;-30
2021/12/05 13:39:37;;;;;;;15.98;11.55;;;;;;;5.48;100.00;100436.75;5073023;28;20040;-34
2021/12/05 13:42:09;;;;;;;18.65;12.30;;;;;;;5.47;100.00;100443.41;5072392;28;20045;-37
2021/12/05 13:45:07;;;;;;;15.68;10.73;;;;;;;5.48;100.00;100458.88;5073239;28;20409;-33
2021/12/05 13:47:39;;;;;;;10.90;7.63;;;;;;;5.47;100.00;100460.00;5072521;28;20040;-32
2021/12/05 13:50:46;;;;;;;16.52;11.55;;;;;;;5.52;100.00;100460.00;5061943;28;20075;-33
2021/12/05 13:53:27;;;;;;;13.20;10.43;;;;;;;5.49;100.00;100466.09;5029008;28;20045;-37
2021/12/05 13:56:01;;;;;;;15.68;10.95;;;;;;;5.45;100.00;100468.56;5029948;28;20045;-31
2021/12/05 13:58:38;;;;;;;18.88;12.65;;;;;;;5.43;100.00;100473.53;5053837;28;20439;-35
2021/12/05 14:01:09;;;;;;;18.92;13.13;;;;;;;5.39;100.00;100477.16;5072579;28;20048;-35
2021/12/05 14:03:46;;;;;;;16.75;11.40;;;;;;;5.37;100.00;100476.59;5072357;28;20371;-37
2021/12/05 14:06:43;;;;;;;13.85;10.00;;;;;;;5.36;100.00;100484.06;5072882;28;20036;-32
2021/12/05 14:09:16;;;;;;;19.42;13.07;;;;;;;5.33;100.00;100495.69;5064463;28;20044;-35
2021/12/05 14:11:54;;;;;;;19.40;12.77;;;;;;;5.34;100.00;100507.56;5072372;28;20490;-37
2021/12/05 14:14:25;;;;;;;16.73;10.88;;;;;;;5.32;100.00;100512.53;5072396;28;20056;-34
2021/12/05 14:16:56;;;;;;;14.98;11.23;;;;;;;5.32;100.00;100512.53;5071387;28;20406;-30
2021/12/05 14:19:27;;;;;;;13.95;10.65;;;;;;;5.33;100.00;100508.69;5072447;28;20056;-34
2021/12/05 14:21:59;;;;;;;16.85;12.05;;;;;;;5.33;100.00;100511.44;5072454;28;20511;-36
2021/12/05 14:24:28;;;;;;;;;;;;;;;5.28;100.00;100525.25;5062411;28;20044;-32
2021/12/05 14:26:59;;;;;;;14.68;11.35;;;;;;;5.26;100.00;100521.94;5072099;28;19920;-36
2021/12/05 14:29:31;;;;;;;12.57;9.70;;;;;;;5.28;100.00;100528.03;5072279;28;20090;-31
2021/12/05 14:32:02;;;;;;;14.60;10.32;;;;;;;5.26;100.00;100533.00;5071502;28;20055;-35
2021/12/05 14:34:30;;;;;;;11.23;7.90;;;;;;;5.26;100.00;100533.00;5071969;28;20052;-36
2021/12/05 14:37:02;;;;;;;11.25;7.65;;;;;;;5.27;100.00;100541.03;5071885;28;20052;-34
2021/12/05 14:39:33;;;;;;;12.93;9.35;;;;;;;5.23;100.00;100545.44;5068140;28;20051;-30
2021/12/05 14:42:04;;;;;;;12.80;8.88;;;;;;;5.23;100.00;100555.66;5071891;28;20048;-34
2021/12/05 14:44:33;;;;;;;11.60;8.55;;;;;;;5.22;100.00;100565.06;5070271;28;20044;-31
2021/12/05 14:47:05;;;;;;;11.15;8.20;;;;;;;5.20;100.00;100576.38;5060970;28;20059;-32
2021/12/05 14:49:36;;;;;;;8.98;7.00;;;;;;;5.21;100.00;100586.34;5071445;28;20045;-36
2021/12/05 14:52:08;;;;;;;14.52;9.02;;;;;;;5.20;100.00;100588.28;5071389;28;20048;-36
2021/12/05 14:54:38;;;;;;;11.43;8.07;;;;;;;5.19;100.00;100591.34;5071312;28;20046;-38
2021/12/05 14:57:09;;;;;;;11.57;8.65;;;;;;;5.20;100.00;100591.06;5071555;28;20062;-30
2021/12/05 14:59:38;;;;;;;9.25;6.63;;;;;;;5.19;100.00;100607.94;5070971;28;20105;-36
2021/12/05 15:02:06;;;;;;;11.55;8.57;;;;;;;5.20;100.00;100607.66;5068590;28;20375;-37
2021/12/05 15:04:38;;;;;;;9.77;7.25;;;;;;;5.21;100.00;100619.53;5071097;28;20044;-35
2021/12/05 15:07:08;;;;;;;11.50;7.60;;;;;;;5.20;100.00;100624.25;5069856;28;20059;-36
2021/12/05 15:09:39;;;;;;;8.90;6.80;;;;;;;5.18;100.00;100622.88;5071384;28;20083;-33
2021/12/05 15:12:10;;;;;;;10.57;7.38;;;;;;;5.17;100.00;100629.50;5069405;28;20402;-34
2021/12/05 15:14:42;;;;;;;10.30;7.90;;;;;;;5.14;100.00;100633.63;5070798;28;20530;-36
2021/12/05 15:17:13;;;;;;;9.23;6.47;;;;;;;5.09;100.00;100627.25;5070356;28;20113;-32
2021/12/05 15:19:45;;;;;;;8.15;6.35;;;;;;;5.07;100.00;100634.97;5070248;28;20045;-35
2021/12/05 15:22:34;;;;;;;7.78;5.85;;;;;;;5.03;100.00;100642.97;5069354;28;20039;-32
2021/12/05 15:25:07;;;;;;;6.53;4.93;;;;;;;5.00;100.00;100648.19;5068995;28;20055;-30
2021/12/05 15:27:37;;;;;;;6.53;4.45;;;;;;;4.97;100.00;100651.53;5067848;28;20076;-35
2021/12/05 15:30:09;;;;;;;7.50;4.97;;;;;;;4.94;100.00;100663.94;5069081;28;20044;-35
2021/12/05 15:32:37;;;;;;;6.57;4.47;;;;;;;4.93;100.00;100676.09;5069787;28;20056;-31
2021/12/05 15:35:08;;;;;;;8.10;5.00;;;;;;;4.92;100.00;100696.56;5069229;28;20037;-37
2021/12/05 15:37:38;;;;;;;6.50;4.57;;;;;;;4.92;100.00;100696.56;5069762;28;20052;-34
2021/12/05 15:40:07;;;;;;;7.32;5.47;;;;;;;4.91;100.00;100703.19;5059719;28;20397;-30
2021/12/05 15:42:37;;;;;;;9.32;6.03;;;;;;;4.90;100.00;100711.75;5067225;28;20076;-36
2021/12/05 15:45:09;;;;;;;8.32;5.43;;;;;;;4.91;100.00;100725.28;5069952;28;20123;-30
2021/12/05 15:47:38;;;;;;;8.57;6.28;;;;;;;4.92;100.00;100726.97;5069222;28;20056;-30
2021/12/05 15:50:09;;;;;;;7.80;6.70;;;;;;;4.94;100.00;100730.31;5069160;28;20072;-33
2021/12/05 15:52:47;;;;;;;7.53;4.95;;;;;;;4.96;100.00;100724.50;5069743;28;20045;-33
2021/12/05 15:55:18;;;;;;;9.02;6.47;;;;;;;4.97;100.00;100728.94;5069017;28;20056;-29
2021/12/05 15:57:49;;;;;;;11.10;6.85;;;;;;;4.96;100.00;100739.16;5069365;28;20489;-32
2021/12/05 16:00:21;;;;;;;13.20;8.82;;;;;;;4.95;100.00;100739.44;5069416;28;20082;-34
2021/12/05 16:02:57;;;;;;;11.70;7.57;;;;;;;4.95;100.00;100747.72;5068932;28;20108;-28